Decoded Metar for LFST (STRASSBOURG in FRANCE) (IATA:SXB) | Meteo·Mobile Aviation Weather
aviador You're here:

LFST Decoded Metar

STRASSBOURG in FRANCE
Report Time2018-12-16 17:30:00
UTC Time2018-12-16 17:38:05
Flight Rules ifr IFR
Wind250° at 03 kt
W.Decomp.*RWY 23: 2.8 kt HW 1.0 kt RCW
W.Rank250° ranks 17
Current wind is below 250° avg. (6.9)
Visibility2800 m
Phenomena:Mist
Freezing Fog
Clouds:Few 012 Hf
Scattered 019 Hf
CeilingNone
Temp01°C (ISA -13)
Dew Point01°C (100% RH)
AAT-1.9°C
QNH1014 hPa
Density Alt-1,020 ft
Elevation505 ft
Report Wrong Elevation
Raw Report
METAR LFST 161730Z AUTO 25003KT 2800 BR FEW012 SCT019 01/01 Q1014 TEMPO
0100 FZFG VV///=

Extra information for LFST:More info

Metar Taf Metar & Taf Last 4 Metars F.Rules Stats Wind Profile Meteogram Temp Stats Airport Information Weather charts Add Link Nearby VenuesMetar ALERT Operation Metar Decoded Social comments